createdAt,value
2023-11-18T00:01:54.300Z,2.00
2023-11-18T00:06:48.365Z,2.10
2023-11-18T00:09:15.749Z,2.08
2023-11-18T00:11:45.219Z,2.00
2023-11-18T00:14:12.565Z,2.15
2023-11-18T00:16:40.055Z,1.67
2023-11-18T00:19:07.233Z,2.10
2023-11-18T00:21:34.211Z,2.40
2023-11-18T00:24:01.024Z,2.50
2023-11-18T00:26:27.864Z,2.38
2023-11-18T00:28:54.783Z,2.25
2023-11-18T00:31:21.787Z,2.05
2023-11-18T00:33:48.688Z,2.47
2023-11-18T00:36:15.508Z,2.30
2023-11-18T00:38:42.330Z,1.92
2023-11-18T00:41:09.183Z,2.40
2023-11-18T00:43:36.087Z,2.22
2023-11-18T00:46:04.816Z,2.22
2023-11-18T00:48:31.806Z,2.77
2023-11-18T00:50:58.657Z,2.10
2023-11-18T00:53:25.537Z,2.35
2023-11-18T00:55:52.519Z,2.60
2023-11-18T00:58:19.451Z,2.53
2023-11-18T01:00:46.509Z,2.20
2023-11-18T01:03:13.529Z,2.25
2023-11-18T01:05:40.535Z,2.25
2023-11-18T01:08:07.493Z,2.13
2023-11-18T01:10:34.426Z,2.17
2023-11-18T01:13:01.883Z,2.40
2023-11-18T01:15:28.818Z,2.08
2023-11-18T01:17:55.799Z,2.40
2023-11-18T01:20:23.537Z,2.17
2023-11-18T01:22:50.970Z,2.30
2023-11-18T01:25:20.765Z,2.00
2023-11-18T01:27:47.943Z,1.85
2023-11-18T01:30:15.864Z,2.25
2023-11-18T01:32:42.880Z,1.88
2023-11-18T01:35:12.271Z,2.28
2023-11-18T01:37:39.950Z,2.03
2023-11-18T01:40:08.652Z,2.30
2023-11-18T01:42:36.024Z,2.23
2023-11-18T01:45:04.863Z,2.03
2023-11-18T01:47:35.235Z,2.00
2023-11-18T01:50:03.433Z,1.83
2023-11-18T01:52:31.667Z,2.30
2023-11-18T01:55:00.490Z,1.95
2023-11-18T01:57:30.339Z,2.00
2023-11-18T01:59:57.382Z,2.10
2023-11-18T02:02:24.761Z,2.00
2023-11-18T02:04:51.851Z,1.70
2023-11-18T02:07:19.161Z,2.00
2023-11-18T02:09:46.931Z,2.15
2023-11-18T02:12:49.848Z,2.40
2023-11-18T02:15:17.464Z,1.80
2023-11-18T02:17:45.268Z,2.00
2023-11-18T02:20:22.259Z,1.80
2023-11-18T02:22:49.709Z,1.75
2023-11-18T02:25:20.042Z,1.90
2023-11-18T02:27:47.418Z,2.10
2023-11-18T02:30:18.074Z,1.90
2023-11-18T02:33:08.828Z,1.83
2023-11-18T02:35:49.497Z,2.00
2023-11-18T02:38:20.621Z,1.90
2023-11-18T02:40:49.381Z,2.10
2023-11-18T02:43:18.056Z,1.60
2023-11-18T02:45:45.752Z,1.70
2023-11-18T02:48:12.835Z,1.77
2023-11-18T02:50:42.596Z,1.90
2023-11-18T02:55:37.733Z,2.20
2023-11-18T02:58:06.949Z,1.75
2023-11-18T03:00:35.350Z,1.77
2023-11-18T03:03:04.156Z,2.05
2023-11-18T03:05:31.803Z,1.80
2023-11-18T03:08:00.020Z,1.88
2023-11-18T03:10:27.537Z,1.63
2023-11-18T03:12:55.459Z,1.73
2023-11-18T03:15:23.973Z,1.42
2023-11-18T03:17:52.169Z,1.93
2023-11-18T03:20:20.271Z,1.90
2023-11-18T03:22:48.563Z,1.73
2023-11-18T03:25:15.859Z,1.67
2023-11-18T03:27:42.907Z,1.80
2023-11-18T03:30:10.865Z,1.77
2023-11-18T03:32:39.464Z,1.70
2023-11-18T03:35:10.401Z,1.67
2023-11-18T03:37:43.113Z,1.48
2023-11-18T03:40:15.188Z,1.67
2023-11-18T03:42:48.344Z,1.50
2023-11-18T03:45:19.373Z,1.83
2023-11-18T03:47:48.142Z,1.50
2023-11-18T03:50:15.210Z,1.50
2023-11-18T03:52:42.290Z,1.55
2023-11-18T03:55:09.995Z,1.55
2023-11-18T03:57:36.959Z,1.67
2023-11-18T04:00:04.563Z,1.55
2023-11-18T04:02:31.579Z,1.60
2023-11-18T04:04:58.663Z,1.45
2023-11-18T04:07:25.657Z,1.70
2023-11-18T04:09:52.587Z,1.58
2023-11-18T04:12:19.458Z,1.73
2023-11-18T04:14:46.289Z,1.60
2023-11-18T04:17:13.295Z,1.55
2023-11-18T04:19:40.559Z,1.50
2023-11-18T04:22:07.544Z,1.70
2023-11-18T04:24:35.851Z,1.58
2023-11-18T04:27:03.400Z,1.50
2023-11-18T04:29:33.369Z,1.45
2023-11-18T04:32:01.126Z,1.40
2023-11-18T04:34:28.249Z,1.63
2023-11-18T04:36:55.340Z,1.42
2023-11-18T04:39:23.598Z,1.60
2023-11-18T04:41:50.510Z,1.48
2023-11-18T04:44:17.703Z,1.55
2023-11-18T04:46:46.084Z,1.50
2023-11-18T04:49:13.146Z,1.50
2023-11-18T04:51:40.154Z,1.50
2023-11-18T04:54:09.026Z,1.45
2023-11-18T04:56:38.958Z,1.55
2023-11-18T04:59:06.489Z,1.33
2023-11-18T05:01:34.217Z,1.77
2023-11-18T05:04:01.672Z,1.52
2023-11-18T05:06:28.712Z,1.52
2023-11-18T05:08:55.848Z,1.55
2023-11-18T05:11:22.890Z,1.70
2023-11-18T05:13:50.435Z,1.75
2023-11-18T05:16:17.569Z,1.27
2023-11-18T05:18:44.719Z,1.30
2023-11-18T05:21:12.285Z,1.30
2023-11-18T05:23:39.559Z,1.13
2023-11-18T05:26:07.109Z,1.30
2023-11-18T05:28:34.734Z,1.20
2023-11-18T05:31:05.967Z,1.40
2023-11-18T05:33:35.520Z,1.20
2023-11-18T05:36:06.364Z,1.40
2023-11-18T05:38:36.136Z,1.50
2023-11-18T05:41:04.601Z,1.20
2023-11-18T05:43:41.912Z,1.20
2023-11-18T05:46:23.772Z,1.23
2023-11-18T05:48:50.904Z,1.20
2023-11-18T05:51:22.955Z,1.05
2023-11-18T05:53:50.469Z,1.10
2023-11-18T05:56:19.987Z,1.30
2023-11-18T05:58:47.411Z,1.42
2023-11-18T06:01:15.281Z,1.40
2023-11-18T06:03:43.462Z,1.00
2023-11-18T06:08:42.570Z,1.10
2023-11-18T06:11:16.168Z,1.23
2023-11-18T06:13:50.898Z,1.00
2023-11-18T06:16:27.983Z,1.20
2023-11-18T06:18:56.809Z,1.35
2023-11-18T06:21:26.299Z,1.10
2023-11-18T06:23:56.358Z,1.10
2023-11-18T06:26:23.655Z,1.40
2023-11-18T06:28:50.677Z,1.10
2023-11-18T06:31:18.437Z,1.30
2023-11-18T06:33:46.774Z,1.25
2023-11-18T06:36:19.437Z,1.20
2023-11-18T06:38:47.213Z,1.20
2023-11-18T06:41:16.497Z,0.95
2023-11-18T06:43:53.268Z,1.05
2023-11-18T06:46:24.400Z,1.08
2023-11-18T06:49:04.934Z,0.80
2023-11-18T06:51:35.896Z,0.90
2023-11-18T06:54:14.497Z,1.23
2023-11-18T06:56:44.055Z,1.20
2023-11-18T07:04:12.526Z,1.20
2023-11-18T07:06:39.425Z,1.20
2023-11-18T07:09:13.327Z,1.05
2023-11-18T07:11:43.201Z,0.82
2023-11-18T07:14:13.492Z,1.38
2023-11-18T07:16:41.176Z,1.02
2023-11-18T07:19:09.102Z,1.05
2023-11-18T07:21:35.983Z,0.90
2023-11-18T07:24:05.997Z,1.02
2023-11-18T07:26:32.890Z,1.17
2023-11-18T07:28:59.797Z,1.05
2023-11-18T07:31:26.791Z,0.85
2023-11-18T07:33:53.809Z,1.15
2023-11-18T07:36:23.490Z,0.80
2023-11-18T07:41:30.866Z,0.93
2023-11-18T07:44:00.254Z,1.00
2023-11-18T07:46:27.370Z,0.93
2023-11-18T07:48:54.761Z,1.20
2023-11-18T07:51:25.446Z,1.20
2023-11-18T07:53:52.487Z,0.93
2023-11-18T07:56:19.514Z,0.88
2023-11-18T07:58:49.237Z,1.00
2023-11-18T08:03:46.448Z,1.00
2023-11-18T08:06:13.803Z,0.90
2023-11-18T08:08:41.932Z,0.90
2023-11-18T08:11:12.116Z,1.20
2023-11-18T08:13:39.163Z,0.90
2023-11-18T08:16:08.362Z,1.20
2023-11-18T08:18:36.666Z,1.15
2023-11-18T08:21:05.949Z,1.10
2023-11-18T08:23:32.929Z,0.95
2023-11-18T08:26:00.142Z,1.30
2023-11-18T08:28:27.154Z,0.90
2023-11-18T08:30:54.087Z,1.00
2023-11-18T08:33:22.115Z,1.00
2023-11-18T08:35:50.219Z,0.80
2023-11-18T08:38:17.109Z,1.00
2023-11-18T08:40:44.084Z,0.93
2023-11-18T08:43:12.541Z,1.02
2023-11-18T08:45:39.863Z,0.90
2023-11-18T08:48:10.119Z,0.90
2023-11-18T08:50:40.914Z,0.82
2023-11-18T08:53:10.897Z,1.00
2023-11-18T08:55:43.470Z,1.15
2023-11-18T08:58:29.239Z,0.70
2023-11-18T09:01:07.018Z,0.70
2023-11-18T09:03:37.726Z,0.73
2023-11-18T09:06:07.587Z,0.90
2023-11-18T09:11:08.171Z,0.70
2023-11-18T09:13:36.270Z,0.97
2023-11-18T09:16:09.366Z,0.70
2023-11-18T09:18:43.258Z,0.90
2023-11-18T09:21:16.366Z,0.77
2023-11-18T09:23:46.044Z,0.90
2023-11-18T09:26:13.223Z,0.88
2023-11-18T09:28:40.081Z,1.02
2023-11-18T09:31:07.666Z,0.80
2023-11-18T09:33:35.852Z,0.90
2023-11-18T09:36:08.494Z,0.80
2023-11-18T09:38:45.422Z,0.80
2023-11-18T09:41:14.367Z,0.80
2023-11-18T09:46:19.927Z,0.93
2023-11-18T09:48:54.346Z,0.73
2023-11-18T09:51:23.328Z,1.00
2023-11-18T09:53:55.211Z,0.90
2023-11-18T09:56:58.345Z,0.90
2023-11-18T09:59:37.500Z,0.90
2023-11-18T10:02:05.849Z,0.80
2023-11-18T10:04:33.147Z,0.82
2023-11-18T10:07:03.688Z,0.95
2023-11-18T10:09:39.320Z,0.70
2023-11-18T10:12:09.904Z,0.88
2023-11-18T10:14:37.464Z,0.75
2023-11-18T10:17:08.512Z,0.60
2023-11-18T10:19:52.337Z,0.60
2023-11-18T10:22:29.377Z,0.75
2023-11-18T10:25:02.388Z,0.80
2023-11-18T10:27:30.132Z,0.70
2023-11-18T10:30:06.084Z,0.60
2023-11-18T10:32:37.342Z,0.50
2023-11-18T10:35:08.883Z,0.70
2023-11-18T10:37:43.333Z,0.63
2023-11-18T10:40:14.407Z,0.80
2023-11-18T10:42:44.059Z,0.82
2023-11-18T10:47:43.983Z,0.60
2023-11-18T10:52:41.901Z,0.75
2023-11-18T10:55:13.338Z,0.60
2023-11-18T10:57:43.228Z,0.70
2023-11-18T11:02:51.533Z,0.80
2023-11-18T11:05:33.889Z,0.60
2023-11-18T11:08:04.135Z,0.70
2023-11-18T11:13:03.098Z,0.52
2023-11-18T11:15:44.440Z,0.68
2023-11-18T11:18:24.621Z,0.65
2023-11-18T11:21:08.501Z,0.50
2023-11-18T11:23:51.713Z,0.70
2023-11-18T11:26:23.292Z,0.55
2023-11-18T11:28:58.373Z,0.60
2023-11-18T11:31:52.986Z,0.50
2023-11-18T11:34:21.697Z,0.60
2023-11-18T11:36:53.757Z,0.40
2023-11-18T11:39:27.167Z,0.60
2023-11-18T11:41:57.897Z,0.60
2023-11-18T11:44:31.804Z,0.57
2023-11-18T11:47:01.346Z,0.60
2023-11-18T11:49:40.298Z,0.50
2023-11-18T11:52:31.295Z,0.53
2023-11-18T11:55:03.787Z,0.50
2023-11-18T11:57:34.071Z,0.75
2023-11-18T12:00:16.284Z,0.40
2023-11-18T12:02:55.897Z,0.40
2023-11-18T12:05:27.654Z,0.75
2023-11-18T12:07:57.990Z,0.50
2023-11-18T12:10:32.229Z,0.50
2023-11-18T12:13:17.762Z,0.60
2023-11-18T12:15:56.272Z,0.68
2023-11-18T12:18:23.744Z,0.57
2023-11-18T12:20:57.356Z,0.70
2023-11-18T12:23:25.508Z,0.60
2023-11-18T12:25:56.232Z,0.55
2023-11-18T12:28:36.337Z,0.57
2023-11-18T12:31:07.242Z,0.40
2023-11-18T12:33:55.773Z,0.70
2023-11-18T12:36:33.861Z,0.52
2023-11-18T12:39:41.857Z,0.52
2023-11-18T12:42:20.887Z,0.60
2023-11-18T12:45:07.911Z,0.63
2023-11-18T12:47:36.025Z,0.68
2023-11-18T12:50:18.649Z,0.60
2023-11-18T12:52:46.126Z,0.60
2023-11-18T12:55:20.178Z,0.65
2023-11-18T12:57:48.742Z,0.60
2023-11-18T13:00:21.912Z,0.40
2023-11-18T13:02:50.528Z,0.55
2023-11-18T13:05:17.844Z,0.40
2023-11-18T13:07:46.040Z,0.70
2023-11-18T13:10:16.562Z,0.50
2023-11-18T13:12:46.394Z,0.60
2023-11-18T13:15:13.647Z,0.52
2023-11-18T13:17:42.004Z,0.47
2023-11-18T13:20:16.119Z,0.40
2023-11-18T13:22:48.513Z,0.40
2023-11-18T13:25:18.333Z,0.80
2023-11-18T13:27:45.318Z,0.50
2023-11-18T13:30:14.608Z,0.60
2023-11-18T13:32:43.199Z,0.30
2023-11-18T13:35:19.063Z,0.38
2023-11-18T13:37:50.263Z,0.60
2023-11-18T13:40:20.252Z,0.45
2023-11-18T13:42:49.896Z,0.40
2023-11-18T13:45:30.541Z,0.60
2023-11-18T13:48:03.423Z,0.40
2023-11-18T13:50:30.631Z,0.40
2023-11-18T13:52:58.969Z,0.40
2023-11-18T13:55:29.656Z,0.40
2023-11-18T13:57:58.832Z,0.40
2023-11-18T14:00:32.395Z,0.40
2023-11-18T14:03:05.668Z,0.30
2023-11-18T14:05:34.674Z,0.30
2023-11-18T14:08:01.594Z,0.30
2023-11-18T14:10:29.086Z,0.50
2023-11-18T14:13:04.330Z,0.35
2023-11-18T14:15:31.573Z,0.50
2023-11-18T14:17:58.971Z,0.40
2023-11-18T14:20:25.995Z,0.40
2023-11-18T14:22:55.809Z,0.30
2023-11-18T14:25:25.198Z,0.40
2023-11-18T14:27:52.646Z,0.30
2023-11-18T14:30:20.722Z,0.32
2023-11-18T14:32:51.011Z,0.40
2023-11-18T14:35:18.558Z,0.30
2023-11-18T14:37:46.316Z,0.30
2023-11-18T14:40:14.777Z,0.50
2023-11-18T14:42:51.645Z,0.40
2023-11-18T14:45:18.701Z,0.32
2023-11-18T14:47:49.592Z,0.40
2023-11-18T14:50:21.604Z,0.50
2023-11-18T14:53:00.560Z,0.20
2023-11-18T14:55:28.435Z,0.40
2023-11-18T14:57:56.370Z,0.32
2023-11-18T15:00:25.995Z,0.25
2023-11-18T15:02:57.019Z,0.40
2023-11-18T15:05:26.883Z,0.50
2023-11-18T15:07:58.795Z,0.50
2023-11-18T15:10:26.684Z,0.47
2023-11-18T15:12:55.868Z,0.40
2023-11-18T15:15:33.610Z,0.50
2023-11-18T15:18:08.551Z,0.50
2023-11-18T15:23:04.135Z,0.50
2023-11-18T15:25:31.148Z,0.45
2023-11-18T15:27:58.173Z,0.57
2023-11-18T15:30:28.777Z,0.60
2023-11-18T15:32:56.009Z,0.95
2023-11-18T15:35:23.453Z,0.98
2023-11-18T15:37:51.932Z,1.00
2023-11-18T15:40:22.470Z,1.33
2023-11-18T15:42:50.235Z,1.73
2023-11-18T15:45:20.600Z,2.90
2023-11-18T15:47:49.437Z,3.10
2023-11-18T15:50:17.722Z,4.57
2023-11-18T15:52:53.219Z,5.55
2023-11-18T15:55:21.953Z,6.28
2023-11-18T15:57:59.095Z,6.20
2023-11-18T16:00:27.501Z,6.68
2023-11-18T16:02:59.644Z,6.85
2023-11-18T16:05:34.579Z,6.70
2023-11-18T16:08:02.664Z,6.20
2023-11-18T16:10:29.739Z,5.88
2023-11-18T16:12:58.737Z,6.82
2023-11-18T16:15:27.245Z,6.15
2023-11-18T16:17:55.410Z,6.90
2023-11-18T16:20:24.601Z,6.38
2023-11-18T16:22:52.949Z,5.88
2023-11-18T16:25:21.929Z,5.68
2023-11-18T16:27:50.568Z,5.15
2023-11-18T16:30:19.283Z,5.20
2023-11-18T16:32:50.236Z,5.20
2023-11-18T16:35:18.447Z,4.93
2023-11-18T16:37:45.571Z,4.75
2023-11-18T16:40:16.720Z,4.68
2023-11-18T16:42:48.870Z,4.63
2023-11-18T16:45:16.374Z,5.03
2023-11-18T16:47:44.055Z,3.92
2023-11-18T16:50:12.426Z,4.38
2023-11-18T16:52:42.181Z,3.33
2023-11-18T17:00:31.156Z,3.38
2023-11-18T17:03:00.028Z,3.58
2023-11-18T17:05:31.966Z,3.20
2023-11-18T17:08:00.355Z,3.67
2023-11-18T17:10:27.848Z,3.95
2023-11-18T17:12:54.767Z,3.80
2023-11-18T17:15:21.819Z,3.70
2023-11-18T17:17:50.829Z,3.63
2023-11-18T17:20:18.152Z,2.78
2023-11-18T17:22:45.354Z,3.00
2023-11-18T17:25:20.262Z,3.22
2023-11-18T17:27:48.274Z,2.80
2023-11-18T17:30:18.867Z,2.83
2023-11-18T17:32:51.074Z,3.00
2023-11-18T17:35:19.732Z,2.95
2023-11-18T17:37:48.225Z,2.90
2023-11-18T17:40:16.173Z,2.83
2023-11-18T17:42:44.563Z,2.88
2023-11-18T17:45:13.136Z,2.85
2023-11-18T17:47:43.160Z,2.53
2023-11-18T17:50:18.435Z,2.33
2023-11-18T17:52:51.678Z,2.15
2023-11-18T17:55:18.996Z,2.88
2023-11-18T17:57:46.265Z,2.03
2023-11-18T18:00:14.584Z,2.50
2023-11-18T18:02:42.215Z,2.40
2023-11-18T18:05:10.080Z,2.03
2023-11-18T18:07:37.187Z,2.08
2023-11-18T18:10:04.755Z,2.00
2023-11-18T18:12:31.713Z,1.85
2023-11-18T18:14:58.658Z,1.80
2023-11-18T18:17:25.640Z,1.75
2023-11-18T18:19:52.559Z,1.88
2023-11-18T18:22:19.533Z,1.90
2023-11-18T18:24:46.678Z,1.95
2023-11-18T18:27:13.495Z,1.95
2023-11-18T18:29:40.386Z,1.65
2023-11-18T18:32:11.792Z,1.70
2023-11-18T18:34:38.744Z,1.95
2023-11-18T18:37:05.709Z,1.70
2023-11-18T18:39:32.612Z,1.83
2023-11-18T18:42:00.060Z,1.95
2023-11-18T18:44:28.044Z,1.48
2023-11-18T18:46:55.629Z,1.58
2023-11-18T18:49:22.567Z,1.35
2023-11-18T18:51:49.549Z,1.55
2023-11-18T18:54:16.514Z,1.15
2023-11-18T18:56:43.516Z,1.60
2023-11-18T18:59:12.168Z,1.50
2023-11-18T19:01:39.915Z,1.50
2023-11-18T19:04:09.025Z,1.50
2023-11-18T19:06:37.194Z,1.42
2023-11-18T19:09:05.390Z,1.27
2023-11-18T19:11:32.446Z,1.35
2023-11-18T19:14:00.067Z,1.40
2023-11-18T19:16:27.436Z,1.30
2023-11-18T19:18:58.171Z,1.58
2023-11-18T19:21:30.243Z,1.40
2023-11-18T19:23:58.462Z,1.60
2023-11-18T19:26:25.484Z,1.60
2023-11-18T19:28:52.417Z,1.55
2023-11-18T19:31:19.469Z,1.25
2023-11-18T19:33:46.478Z,1.50
2023-11-18T19:36:13.632Z,1.42
2023-11-18T19:38:41.213Z,1.20
2023-11-18T19:41:08.441Z,1.17
2023-11-18T19:43:35.864Z,1.05
2023-11-18T19:46:03.065Z,1.20
2023-11-18T19:48:32.718Z,1.30
2023-11-18T19:51:00.825Z,1.00
2023-11-18T19:53:28.563Z,1.40
2023-11-18T19:55:55.802Z,1.75
2023-11-18T19:58:23.549Z,0.90
2023-11-18T20:00:54.180Z,1.20
2023-11-18T20:03:24.418Z,1.10
2023-11-18T20:05:51.715Z,1.42
2023-11-18T20:08:19.282Z,1.05
2023-11-18T20:10:48.244Z,0.90
2023-11-18T20:13:16.138Z,1.30
2023-11-18T20:15:43.337Z,1.00
2023-11-18T20:18:11.614Z,1.15
2023-11-18T20:20:38.893Z,0.90
2023-11-18T20:23:06.498Z,0.98
2023-11-18T20:25:34.852Z,0.98
2023-11-18T20:28:01.990Z,0.90
2023-11-18T20:30:29.078Z,0.80
2023-11-18T20:32:57.381Z,0.88
2023-11-18T20:35:26.471Z,1.08
2023-11-18T20:37:53.643Z,1.00
2023-11-18T20:40:23.608Z,0.77
2023-11-18T20:42:51.130Z,1.00
2023-11-18T20:45:19.751Z,0.70
2023-11-18T20:47:49.866Z,0.90
2023-11-18T20:50:17.534Z,1.08
2023-11-18T20:52:44.758Z,1.00
2023-11-18T20:55:11.956Z,0.68
2023-11-18T20:57:39.359Z,0.90
2023-11-18T21:00:08.196Z,0.80
2023-11-18T21:02:35.957Z,0.90
2023-11-18T21:05:09.714Z,0.70
2023-11-18T21:07:37.058Z,0.80
2023-11-18T21:10:05.810Z,0.90
2023-11-18T21:12:33.643Z,0.82
2023-11-18T21:15:02.938Z,1.13
2023-11-18T21:17:30.507Z,0.77
2023-11-18T21:19:57.791Z,0.77
2023-11-18T21:22:24.895Z,0.80
2023-11-18T21:24:54.456Z,0.60
2023-11-18T21:27:21.500Z,0.80
2023-11-18T21:29:48.447Z,0.50
2023-11-18T21:32:15.479Z,0.57
2023-11-18T21:34:44.204Z,0.70
2023-11-18T21:37:11.819Z,0.70
2023-11-18T21:39:42.550Z,0.75
2023-11-18T21:42:11.901Z,0.93
2023-11-18T21:44:39.907Z,0.70
2023-11-18T21:47:11.354Z,0.80
2023-11-18T21:49:38.496Z,0.60
2023-11-18T21:52:05.968Z,0.80
2023-11-18T21:54:34.375Z,0.60
2023-11-18T21:57:01.361Z,1.50
2023-11-18T21:59:29.217Z,0.65
2023-11-18T22:01:56.348Z,0.65
2023-11-18T22:04:23.581Z,0.70
2023-11-18T22:06:53.544Z,0.70
2023-11-18T22:09:24.670Z,0.70
2023-11-18T22:14:18.735Z,0.70
2023-11-18T22:16:46.970Z,0.70
2023-11-18T22:19:16.476Z,0.50
2023-11-18T22:21:43.894Z,0.50
2023-11-18T22:24:11.020Z,0.70
2023-11-18T22:26:39.272Z,0.50
2023-11-18T22:29:06.563Z,0.50
2023-11-18T22:31:33.528Z,0.55
2023-11-18T22:34:00.441Z,0.60
2023-11-18T22:36:27.348Z,0.60
2023-11-18T22:38:54.575Z,0.50
2023-11-18T22:41:21.525Z,0.80
2023-11-18T22:43:48.797Z,0.50
2023-11-18T22:46:15.941Z,0.70
2023-11-18T22:48:45.980Z,0.40
2023-11-18T22:51:13.452Z,0.40
2023-11-18T22:53:43.725Z,0.65
2023-11-18T22:56:11.379Z,0.50
2023-11-18T22:58:42.959Z,0.60
2023-11-18T23:01:11.625Z,0.35
2023-11-18T23:03:39.076Z,0.50
2023-11-18T23:08:36.506Z,0.57
2023-11-18T23:11:03.531Z,0.60
2023-11-18T23:13:31.274Z,0.40
2023-11-18T23:16:01.684Z,0.40
2023-11-18T23:18:29.926Z,0.55
2023-11-18T23:20:58.889Z,0.40
2023-11-18T23:23:26.354Z,0.50
2023-11-18T23:25:53.318Z,0.50
2023-11-18T23:28:20.317Z,0.45
2023-11-18T23:30:47.498Z,0.43
2023-11-18T23:33:14.508Z,0.50
2023-11-18T23:35:41.750Z,0.50
2023-11-18T23:38:08.942Z,0.70
2023-11-18T23:40:36.188Z,0.40
2023-11-18T23:43:03.334Z,0.40
2023-11-18T23:45:32.171Z,0.38
2023-11-18T23:47:59.333Z,0.40
2023-11-18T23:50:28.301Z,0.50
2023-11-18T23:52:55.374Z,0.40
2023-11-18T23:55:22.557Z,0.25
2023-11-18T23:57:50.329Z,0.40
